sensor_id;sensor_type;location;lat;lon;timestamp;pressure;altitude;pressure_sealevel;temperature;humidity
10464;BME280;5279;42.048;24.638;2023-12-20T00:00:30;97784.41;;;5.26;87.80
10464;BME280;5279;42.048;24.638;2023-12-20T00:02:56;97799.31;;;5.25;87.67
10464;BME280;5279;42.048;24.638;2023-12-20T00:05:23;97786.91;;;5.27;86.24
10464;BME280;5279;42.048;24.638;2023-12-20T00:07:50;97794.06;;;5.25;87.30
10464;BME280;5279;42.048;24.638;2023-12-20T00:10:17;97784.41;;;5.13;89.33
10464;BME280;5279;42.048;24.638;2023-12-20T00:12:43;97787.09;;;5.24;84.12
10464;BME280;5279;42.048;24.638;2023-12-20T00:15:10;97786.69;;;5.30;85.41
10464;BME280;5279;42.048;24.638;2023-12-20T00:17:38;97786.06;;;5.14;90.59
10464;BME280;5279;42.048;24.638;2023-12-20T00:20:06;97781.78;;;5.01;90.83
10464;BME280;5279;42.048;24.638;2023-12-20T00:22:33;97776.41;;;5.02;89.33
10464;BME280;5279;42.048;24.638;2023-12-20T00:24:59;97781.88;;;4.99;91.20
10464;BME280;5279;42.048;24.638;2023-12-20T00:27:26;97786.09;;;4.89;89.43
10464;BME280;5279;42.048;24.638;2023-12-20T00:29:53;97782.72;;;4.87;89.10
10464;BME280;5279;42.048;24.638;2023-12-20T00:32:19;97783.13;;;4.81;89.76
10464;BME280;5279;42.048;24.638;2023-12-20T00:34:47;97779.78;;;4.79;90.13
10464;BME280;5279;42.048;24.638;2023-12-20T00:37:14;97783.34;;;4.78;90.48
10464;BME280;5279;42.048;24.638;2023-12-20T00:39:41;97780.00;;;4.76;91.86
10464;BME280;5279;42.048;24.638;2023-12-20T00:42:09;97781.25;;;4.58;94.69
10464;BME280;5279;42.048;24.638;2023-12-20T00:44:35;97777.69;;;4.59;93.99
10464;BME280;5279;42.048;24.638;2023-12-20T00:47:03;97772.44;;;4.59;93.79
10464;BME280;5279;42.048;24.638;2023-12-20T00:49:30;97772.63;;;4.56;94.74
10464;BME280;5279;42.048;24.638;2023-12-20T00:51:58;97771.25;;;4.37;94.23
10464;BME280;5279;42.048;24.638;2023-12-20T00:54:24;97769.44;;;4.25;93.74
10464;BME280;5279;42.048;24.638;2023-12-20T00:56:51;97762.72;;;4.21;96.19
10464;BME280;5279;42.048;24.638;2023-12-20T00:59:18;97754.53;;;4.13;97.54
10464;BME280;5279;42.048;24.638;2023-12-20T01:01:45;97751.97;;;4.12;97.95
10464;BME280;5279;42.048;24.638;2023-12-20T01:04:12;97757.47;;;4.21;97.40
10464;BME280;5279;42.048;24.638;2023-12-20T01:06:38;97746.78;;;4.24;96.66
10464;BME280;5279;42.048;24.638;2023-12-20T01:09:06;97735.63;;;4.21;95.35
10464;BME280;5279;42.048;24.638;2023-12-20T01:11:33;97729.75;;;4.17;95.41
10464;BME280;5279;42.048;24.638;2023-12-20T01:14:00;97734.56;;;4.11;94.78
10464;BME280;5279;42.048;24.638;2023-12-20T01:16:26;97733.94;;;4.07;94.18
10464;BME280;5279;42.048;24.638;2023-12-20T01:18:53;97727.00;;;4.06;94.23
10464;BME280;5279;42.048;24.638;2023-12-20T01:21:20;97723.47;;;4.07;96.63
10464;BME280;5279;42.048;24.638;2023-12-20T01:23:46;97722.19;;;4.00;99.82
10464;BME280;5279;42.048;24.638;2023-12-20T01:26:16;97718.63;;;4.01;98.25
10464;BME280;5279;42.048;24.638;2023-12-20T01:28:42;97718.41;;;4.04;97.92
10464;BME280;5279;42.048;24.638;2023-12-20T01:31:09;97715.66;;;3.93;100.00
10464;BME280;5279;42.048;24.638;2023-12-20T01:33:36;97710.41;;;3.93;99.33
10464;BME280;5279;42.048;24.638;2023-12-20T01:36:03;97698.19;;;4.06;98.43
10464;BME280;5279;42.048;24.638;2023-12-20T01:38:30;97695.03;;;4.14;98.95
10464;BME280;5279;42.048;24.638;2023-12-20T01:41:00;97689.56;;;4.17;99.62
10464;BME280;5279;42.048;24.638;2023-12-20T01:43:29;97693.25;;;4.14;98.17
10464;BME280;5279;42.048;24.638;2023-12-20T01:45:57;97686.00;;;4.05;98.70
10464;BME280;5279;42.048;24.638;2023-12-20T01:48:24;97693.75;;;3.94;100.00
10464;BME280;5279;42.048;24.638;2023-12-20T01:50:51;97685.75;;;3.96;100.00
10464;BME280;5279;42.048;24.638;2023-12-20T01:53:19;97679.78;;;3.94;100.00
10464;BME280;5279;42.048;24.638;2023-12-20T01:55:48;97675.19;;;3.97;100.00
10464;BME280;5279;42.048;24.638;2023-12-20T01:58:17;97669.94;;;3.97;100.00
10464;BME280;5279;42.048;24.638;2023-12-20T02:00:45;97669.69;;;3.75;100.00
10464;BME280;5279;42.048;24.638;2023-12-20T02:03:12;97664.41;;;3.62;100.00
10464;BME280;5279;42.048;24.638;2023-12-20T02:05:39;97670.59;;;3.61;100.00
10464;BME280;5279;42.048;24.638;2023-12-20T02:08:06;97667.13;;;3.61;100.00
10464;BME280;5279;42.048;24.638;2023-12-20T02:10:33;97661.50;;;3.67;100.00
10464;BME280;5279;42.048;24.638;2023-12-20T02:13:00;97650.81;;;3.70;100.00
10464;BME280;5279;42.048;24.638;2023-12-20T02:15:27;97650.41;;;3.76;100.00
10464;BME280;5279;42.048;24.638;2023-12-20T02:17:55;97657.31;;;3.77;100.00
10464;BME280;5279;42.048;24.638;2023-12-20T02:20:22;97649.38;;;3.78;100.00
10464;BME280;5279;42.048;24.638;2023-12-20T02:22:50;97640.38;;;3.82;100.00
10464;BME280;5279;42.048;24.638;2023-12-20T02:25:17;97642.88;;;3.84;100.00
10464;BME280;5279;42.048;24.638;2023-12-20T02:27:44;97643.28;;;3.78;100.00
10464;BME280;5279;42.048;24.638;2023-12-20T02:30:11;97646.00;;;3.76;100.00
10464;BME280;5279;42.048;24.638;2023-12-20T02:32:37;97642.50;;;3.63;100.00
10464;BME280;5279;42.048;24.638;2023-12-20T02:35:05;97649.31;;;3.66;100.00
10464;BME280;5279;42.048;24.638;2023-12-20T02:37:32;97643.69;;;3.72;100.00
10464;BME280;5279;42.048;24.638;2023-12-20T02:40:00;97643.47;;;3.75;100.00
10464;BME280;5279;42.048;24.638;2023-12-20T02:42:28;97636.56;;;3.74;100.00
10464;BME280;5279;42.048;24.638;2023-12-20T02:44:55;97630.28;;;3.76;100.00
10464;BME280;5279;42.048;24.638;2023-12-20T02:47:21;97629.25;;;3.79;100.00
10464;BME280;5279;42.048;24.638;2023-12-20T02:49:48;97618.53;;;3.69;100.00
10464;BME280;5279;42.048;24.638;2023-12-20T02:52:15;97618.09;;;3.63;100.00
10464;BME280;5279;42.048;24.638;2023-12-20T02:54:42;97618.63;;;3.68;100.00
10464;BME280;5279;42.048;24.638;2023-12-20T02:57:10;97613.38;;;3.68;100.00
10464;BME280;5279;42.048;24.638;2023-12-20T02:59:36;97618.53;;;3.69;100.00
10464;BME280;5279;42.048;24.638;2023-12-20T03:02:03;97613.50;;;3.66;100.00
10464;BME280;5279;42.048;24.638;2023-12-20T03:04:30;97612.66;;;3.66;100.00
10464;BME280;5279;42.048;24.638;2023-12-20T03:06:57;97608.69;;;3.73;100.00
10464;BME280;5279;42.048;24.638;2023-12-20T03:09:23;97604.50;;;3.83;99.91
10464;BME280;5279;42.048;24.638;2023-12-20T03:11:50;97609.53;;;3.86;100.00
10464;BME280;5279;42.048;24.638;2023-12-20T03:14:18;97609.50;;;3.61;100.00
10464;BME280;5279;42.048;24.638;2023-12-20T03:16:47;97609.50;;;3.61;100.00
10464;BME280;5279;42.048;24.638;2023-12-20T03:19:13;97599.22;;;3.58;100.00
10464;BME280;5279;42.048;24.638;2023-12-20T03:21:40;97600.06;;;3.58;100.00
10464;BME280;5279;42.048;24.638;2023-12-20T03:24:07;97584.03;;;3.63;100.00
10464;BME280;5279;42.048;24.638;2023-12-20T03:26:33;97595.03;;;3.68;100.00
10464;BME280;5279;42.048;24.638;2023-12-20T03:29:00;97594.81;;;3.71;100.00
10464;BME280;5279;42.048;24.638;2023-12-20T03:31:28;97587.53;;;3.76;100.00
10464;BME280;5279;42.048;24.638;2023-12-20T03:33:55;97590.03;;;3.77;99.73
10464;BME280;5279;42.048;24.638;2023-12-20T03:36:21;97585.59;;;3.65;100.00
10464;BME280;5279;42.048;24.638;2023-12-20T03:38:48;97581.31;;;3.64;100.00
10464;BME280;5279;42.048;24.638;2023-12-20T03:41:15;97581.22;;;3.66;100.00
10464;BME280;5279;42.048;24.638;2023-12-20T03:43:41;97581.31;;;3.64;100.00
10464;BME280;5279;42.048;24.638;2023-12-20T03:46:08;97592.91;;;3.48;100.00
10464;BME280;5279;42.048;24.638;2023-12-20T03:48:36;97592.38;;;3.43;100.00
10464;BME280;5279;42.048;24.638;2023-12-20T03:51:03;97597.41;;;3.46;100.00
10464;BME280;5279;42.048;24.638;2023-12-20T03:53:30;97590.69;;;3.42;100.00
10464;BME280;5279;42.048;24.638;2023-12-20T03:55:56;97585.97;;;3.47;100.00
10464;BME280;5279;42.048;24.638;2023-12-20T03:58:23;97592.72;;;3.51;100.00
10464;BME280;5279;42.048;24.638;2023-12-20T04:00:50;97581.38;;;3.50;100.00
10464;BME280;5279;42.048;24.638;2023-12-20T04:03:16;97585.78;;;3.50;100.00
10464;BME280;5279;42.048;24.638;2023-12-20T04:05:44;97586.19;;;3.44;100.00
10464;BME280;5279;42.048;24.638;2023-12-20T04:08:11;97586.59;;;3.38;100.00
10464;BME280;5279;42.048;24.638;2023-12-20T04:10:38;97583.03;;;3.39;100.00
10464;BME280;5279;42.048;24.638;2023-12-20T04:13:04;97588.06;;;3.42;100.00
10464;BME280;5279;42.048;24.638;2023-12-20T04:15:31;97580.09;;;3.30;100.00
10464;BME280;5279;42.048;24.638;2023-12-20T04:17:58;97572.13;;;3.32;100.00
10464;BME280;5279;42.048;24.638;2023-12-20T04:20:25;97572.56;;;3.39;100.00
10464;BME280;5279;42.048;24.638;2023-12-20T04:22:53;97577.41;;;3.45;100.00
10464;BME280;5279;42.048;24.638;2023-12-20T04:25:19;97573.84;;;3.46;100.00
10464;BME280;5279;42.048;24.638;2023-12-20T04:27:46;97578.84;;;3.36;100.00
10464;BME280;5279;42.048;24.638;2023-12-20T04:30:13;97576.13;;;3.38;100.00
10464;BME280;5279;42.048;24.638;2023-12-20T04:32:40;97566.59;;;3.37;100.00
10464;BME280;5279;42.048;24.638;2023-12-20T04:35:06;97567.97;;;3.42;100.00
10464;BME280;5279;42.048;24.638;2023-12-20T04:37:33;97561.69;;;3.45;100.00
10464;BME280;5279;42.048;24.638;2023-12-20T04:40:02;97566.03;;;3.31;100.00
10464;BME280;5279;42.048;24.638;2023-12-20T04:42:30;97567.69;;;3.20;100.00
10464;BME280;5279;42.048;24.638;2023-12-20T04:44:57;97562.06;;;2.99;100.00
10464;BME280;5279;42.048;24.638;2023-12-20T04:47:24;97556.13;;;2.97;100.00
10464;BME280;5279;42.048;24.638;2023-12-20T04:49:50;97550.88;;;2.97;100.00
10464;BME280;5279;42.048;24.638;2023-12-20T04:52:17;97547.09;;;3.01;100.00
10464;BME280;5279;42.048;24.638;2023-12-20T04:54:44;97547.66;;;3.06;100.00
10464;BME280;5279;42.048;24.638;2023-12-20T04:57:12;97544.66;;;3.12;100.00
10464;BME280;5279;42.048;24.638;2023-12-20T04:59:39;97541.28;;;3.10;100.00
10464;BME280;5279;42.048;24.638;2023-12-20T05:02:06;97539.94;;;3.17;100.00
10464;BME280;5279;42.048;24.638;2023-12-20T05:04:33;97543.28;;;3.19;100.00
10464;BME280;5279;42.048;24.638;2023-12-20T05:06:59;97542.56;;;3.17;100.00
10464;BME280;5279;42.048;24.638;2023-12-20T05:09:26;97537.56;;;3.27;100.00
10464;BME280;5279;42.048;24.638;2023-12-20T05:11:53;97529.94;;;3.37;100.00
10464;BME280;5279;42.048;24.638;2023-12-20T05:14:21;97525.41;;;3.39;100.00
10464;BME280;5279;42.048;24.638;2023-12-20T05:16:48;97520.72;;;3.44;100.00
10464;BME280;5279;42.048;24.638;2023-12-20T05:19:14;97525.19;;;3.29;100.00
10464;BME280;5279;42.048;24.638;2023-12-20T05:21:41;97524.22;;;3.17;100.00
10464;BME280;5279;42.048;24.638;2023-12-20T05:24:08;97520.13;;;3.13;100.00
10464;BME280;5279;42.048;24.638;2023-12-20T05:26:35;97512.81;;;3.18;100.00
10464;BME280;5279;42.048;24.638;2023-12-20T05:29:01;97518.06;;;3.18;100.00
10464;BME280;5279;42.048;24.638;2023-12-20T05:31:31;97507.59;;;3.18;100.00
10464;BME280;5279;42.048;24.638;2023-12-20T05:33:58;97506.09;;;3.14;100.00
10464;BME280;5279;42.048;24.638;2023-12-20T05:36:24;97501.28;;;3.08;100.00
10464;BME280;5279;42.048;24.638;2023-12-20T05:38:51;97492.69;;;3.06;100.00
10464;BME280;5279;42.048;24.638;2023-12-20T05:41:18;97494.34;;;3.07;100.00
10464;BME280;5279;42.048;24.638;2023-12-20T05:43:47;97504.28;;;3.02;100.00
10464;BME280;5279;42.048;24.638;2023-12-20T05:46:13;97505.75;;;2.94;100.00
10464;BME280;5279;42.048;24.638;2023-12-20T05:48:41;97501.03;;;2.99;100.00
10464;BME280;5279;42.048;24.638;2023-12-20T05:51:11;97495.91;;;2.97;100.00
10464;BME280;5279;42.048;24.638;2023-12-20T05:53:38;97494.34;;;3.07;100.00
10464;BME280;5279;42.048;24.638;2023-12-20T05:56:05;97492.28;;;3.12;100.00
10464;BME280;5279;42.048;24.638;2023-12-20T05:58:32;97490.41;;;3.14;100.00
10464;BME280;5279;42.048;24.638;2023-12-20T06:00:59;97486.44;;;3.21;100.00
10464;BME280;5279;42.048;24.638;2023-12-20T06:03:25;97487.56;;;3.17;100.00
10464;BME280;5279;42.048;24.638;2023-12-20T06:05:53;97482.97;;;3.08;100.00
10464;BME280;5279;42.048;24.638;2023-12-20T06:08:20;97476.78;;;3.09;100.00
10464;BME280;5279;42.048;24.638;2023-12-20T06:10:47;97474.19;;;3.09;100.00
10464;BME280;5279;42.048;24.638;2023-12-20T06:13:13;97482.03;;;3.09;100.00
10464;BME280;5279;42.048;24.638;2023-12-20T06:15:40;97494.16;;;3.10;100.00
10464;BME280;5279;42.048;24.638;2023-12-20T06:18:07;97490.06;;;3.06;100.00
10464;BME280;5279;42.048;24.638;2023-12-20T06:20:34;97486.84;;;3.15;100.00
10464;BME280;5279;42.048;24.638;2023-12-20T06:23:02;97492.31;;;3.25;100.00
10464;BME280;5279;42.048;24.638;2023-12-20T06:25:29;97486.53;;;3.20;100.00
10464;BME280;5279;42.048;24.638;2023-12-20T06:27:55;97485.59;;;3.21;100.00
10464;BME280;5279;42.048;24.638;2023-12-20T06:30:22;97480.78;;;3.15;100.00
10464;BME280;5279;42.048;24.638;2023-12-20T06:32:50;97486.84;;;3.15;100.00
10464;BME280;5279;42.048;24.638;2023-12-20T06:35:18;97487.06;;;3.12;100.00
10464;BME280;5279;42.048;24.638;2023-12-20T06:37:44;97488.31;;;3.19;100.00
10464;BME280;5279;42.048;24.638;2023-12-20T06:40:13;97482.47;;;3.28;100.00
10464;BME280;5279;42.048;24.638;2023-12-20T06:42:39;97477.25;;;3.54;100.00
10464;BME280;5279;42.048;24.638;2023-12-20T06:45:06;97486.31;;;4.11;100.00
10464;BME280;5279;42.048;24.638;2023-12-20T06:47:33;97470.31;;;4.63;100.00
10464;BME280;5279;42.048;24.638;2023-12-20T06:50:00;97479.13;;;5.10;100.00
10464;BME280;5279;42.048;24.638;2023-12-20T06:52:27;97475.31;;;5.48;94.46
10464;BME280;5279;42.048;24.638;2023-12-20T06:54:53;97482.25;;;5.61;83.63
10464;BME280;5279;42.048;24.638;2023-12-20T06:57:21;97482.72;;;5.66;83.07
10464;BME280;5279;42.048;24.638;2023-12-20T06:59:48;97478.69;;;5.62;82.97
10464;BME280;5279;42.048;24.638;2023-12-20T07:02:15;97477.25;;;5.69;83.94
10464;BME280;5279;42.048;24.638;2023-12-20T07:04:42;97481.31;;;5.73;85.08
10464;BME280;5279;42.048;24.638;2023-12-20T07:07:08;97476.81;;;5.97;83.20
10464;BME280;5279;42.048;24.638;2023-12-20T07:09:35;97468.22;;;6.28;84.04
10464;BME280;5279;42.048;24.638;2023-12-20T07:12:03;97469.09;;;6.60;81.24
10464;BME280;5279;42.048;24.638;2023-12-20T07:14:31;97464.53;;;6.74;75.92
10464;BME280;5279;42.048;24.638;2023-12-20T07:16:57;97466.88;;;6.88;77.69
10464;BME280;5279;42.048;24.638;2023-12-20T07:19:24;97472.75;;;7.12;74.76
10464;BME280;5279;42.048;24.638;2023-12-20T07:21:51;97457.47;;;7.27;75.22
10464;BME280;5279;42.048;24.638;2023-12-20T07:24:18;97458.53;;;7.35;75.70
10464;BME280;5279;42.048;24.638;2023-12-20T07:26:45;97458.97;;;7.40;73.23
10464;BME280;5279;42.048;24.638;2023-12-20T07:29:11;97454.13;;;7.45;72.59
10464;BME280;5279;42.048;24.638;2023-12-20T07:31:40;97458.19;;;7.49;73.37
10464;BME280;5279;42.048;24.638;2023-12-20T07:34:06;97458.88;;;7.51;71.35
10464;BME280;5279;42.048;24.638;2023-12-20T07:36:33;97456.25;;;7.51;71.67
10464;BME280;5279;42.048;24.638;2023-12-20T07:39:00;97438.50;;;7.74;72.07
10464;BME280;5279;42.048;24.638;2023-12-20T07:41:27;97446.38;;;7.95;72.69
10464;BME280;5279;42.048;24.638;2023-12-20T07:43:53;97436.16;;;8.11;70.15
10464;BME280;5279;42.048;24.638;2023-12-20T07:46:21;97441.66;;;8.29;70.56
10464;BME280;5279;42.048;24.638;2023-12-20T07:48:50;97441.00;;;8.46;68.26
10464;BME280;5279;42.048;24.638;2023-12-20T07:51:17;97439.97;;;8.87;66.61
10464;BME280;5279;42.048;24.638;2023-12-20T07:53:44;97440.00;;;8.96;67.45
10464;BME280;5279;42.048;24.638;2023-12-20T07:56:14;97434.56;;;9.07;67.75
10464;BME280;5279;42.048;24.638;2023-12-20T07:58:41;97438.03;;;9.17;66.61
10464;BME280;5279;42.048;24.638;2023-12-20T08:01:09;97429.84;;;9.11;65.66
10464;BME280;5279;42.048;24.638;2023-12-20T08:03:35;97427.75;;;9.24;65.12
10464;BME280;5279;42.048;24.638;2023-12-20T08:06:04;97429.66;;;9.41;65.14
10464;BME280;5279;42.048;24.638;2023-12-20T08:08:31;97426.94;;;9.79;63.38
10464;BME280;5279;42.048;24.638;2023-12-20T08:10:58;97420.59;;;10.00;64.73
10464;BME280;5279;42.048;24.638;2023-12-20T08:13:25;97421.66;;;10.07;62.85
10464;BME280;5279;42.048;24.638;2023-12-20T08:15:53;97430.91;;;10.03;60.04
10464;BME280;5279;42.048;24.638;2023-12-20T08:18:21;97428.09;;;10.14;58.73
10464;BME280;5279;42.048;24.638;2023-12-20T08:20:48;97420.25;;;10.22;59.48
10464;BME280;5279;42.048;24.638;2023-12-20T08:23:16;97413.75;;;10.34;59.87
10464;BME280;5279;42.048;24.638;2023-12-20T08:25:43;97421.13;;;10.40;59.26
10464;BME280;5279;42.048;24.638;2023-12-20T08:28:09;97409.63;;;10.49;58.42
10464;BME280;5279;42.048;24.638;2023-12-20T08:30:36;97415.34;;;10.27;57.76
10464;BME280;5279;42.048;24.638;2023-12-20T08:33:03;97406.31;;;10.47;59.25
10464;BME280;5279;42.048;24.638;2023-12-20T08:35:30;97399.44;;;10.54;58.59
10464;BME280;5279;42.048;24.638;2023-12-20T08:37:57;97395.19;;;10.61;59.40
10464;BME280;5279;42.048;24.638;2023-12-20T08:40:25;97397.94;;;10.69;60.36
10464;BME280;5279;42.048;24.638;2023-12-20T08:42:51;97391.66;;;10.70;60.21
10464;BME280;5279;42.048;24.638;2023-12-20T08:45:18;97383.94;;;10.77;59.26
10464;BME280;5279;42.048;24.638;2023-12-20T08:47:45;97373.09;;;10.70;59.50
10464;BME280;5279;42.048;24.638;2023-12-20T08:50:12;97373.56;;;10.83;58.31
10464;BME280;5279;42.048;24.638;2023-12-20T08:52:39;97366.88;;;10.79;57.77
10464;BME280;5279;42.048;24.638;2023-12-20T08:55:06;97361.06;;;10.93;57.82
10464;BME280;5279;42.048;24.638;2023-12-20T08:57:34;97352.00;;;10.61;58.23
10464;BME280;5279;42.048;24.638;2023-12-20T09:00:01;97353.41;;;10.55;57.49
10464;BME280;5279;42.048;24.638;2023-12-20T09:02:28;97345.09;;;10.68;57.79
10464;BME280;5279;42.048;24.638;2023-12-20T09:04:55;97344.41;;;10.83;58.00
10464;BME280;5279;42.048;24.638;2023-12-20T09:07:22;97344.56;;;11.00;57.56
10464;BME280;5279;42.048;24.638;2023-12-20T09:09:49;97332.84;;;11.10;57.86
10464;BME280;5279;42.048;24.638;2023-12-20T09:12:17;97326.00;;;11.51;57.57
10464;BME280;5279;42.048;24.638;2023-12-20T09:14:45;97322.03;;;12.23;54.97
10464;BME280;5279;42.048;24.638;2023-12-20T09:17:12;97326.47;;;12.80;52.29
10464;BME280;5279;42.048;24.638;2023-12-20T09:19:38;97320.81;;;13.32;51.53
10464;BME280;5279;42.048;24.638;2023-12-20T09:22:05;97314.84;;;12.89;51.33
10464;BME280;5279;42.048;24.638;2023-12-20T09:24:32;97305.31;;;12.38;53.92
10464;BME280;5279;42.048;24.638;2023-12-20T09:26:59;97302.38;;;11.91;55.13
10464;BME280;5279;42.048;24.638;2023-12-20T09:29:26;97298.44;;;12.03;54.84
10464;BME280;5279;42.048;24.638;2023-12-20T09:31:54;97299.84;;;12.48;53.88
10464;BME280;5279;42.048;24.638;2023-12-20T09:34:22;97294.09;;;13.01;52.64
10464;BME280;5279;42.048;24.638;2023-12-20T09:36:49;97280.81;;;14.11;50.87
10464;BME280;5279;42.048;24.638;2023-12-20T09:39:17;97283.03;;;15.73;46.19
10464;BME280;5279;42.048;24.638;2023-12-20T09:41:50;97272.69;;;17.13;42.48
10464;BME280;5279;42.048;24.638;2023-12-20T09:44:18;97262.59;;;18.59;39.42
10464;BME280;5279;42.048;24.638;2023-12-20T09:46:47;97250.69;;;19.40;37.70
10464;BME280;5279;42.048;24.638;2023-12-20T09:49:17;97250.84;;;20.42;35.77
10464;BME280;5279;42.048;24.638;2023-12-20T09:51:46;97246.56;;;21.22;34.26
10464;BME280;5279;42.048;24.638;2023-12-20T09:54:13;97237.69;;;21.83;32.67
10464;BME280;5279;42.048;24.638;2023-12-20T09:56:40;97243.81;;;22.44;31.00
10464;BME280;5279;42.048;24.638;2023-12-20T09:59:07;97233.19;;;22.49;30.78
10464;BME280;5279;42.048;24.638;2023-12-20T10:01:34;97221.75;;;22.65;31.00
10464;BME280;5279;42.048;24.638;2023-12-20T10:04:05;97224.38;;;22.24;31.59
10464;BME280;5279;42.048;24.638;2023-12-20T10:06:35;97222.28;;;21.90;31.85
10464;BME280;5279;42.048;24.638;2023-12-20T10:09:02;97218.88;;;21.58;32.17
10464;BME280;5279;42.048;24.638;2023-12-20T10:11:31;97203.06;;;21.61;32.09
10464;BME280;5279;42.048;24.638;2023-12-20T10:13:59;97199.41;;;23.11;30.04
10464;BME280;5279;42.048;24.638;2023-12-20T10:16:30;97196.69;;;24.16;28.88
10464;BME280;5279;42.048;24.638;2023-12-20T10:18:57;97189.69;;;24.76;27.88
10464;BME280;5279;42.048;24.638;2023-12-20T10:21:25;97180.88;;;26.07;26.39
10464;BME280;5279;42.048;24.638;2023-12-20T10:23:54;97161.16;;;27.24;24.55
10464;BME280;5279;42.048;24.638;2023-12-20T10:26:21;97173.41;;;27.58;23.96
10464;BME280;5279;42.048;24.638;2023-12-20T10:28:50;97168.44;;;26.60;23.98
10464;BME280;5279;42.048;24.638;2023-12-20T10:31:26;97157.06;;;25.71;25.40
10464;BME280;5279;42.048;24.638;2023-12-20T10:33:53;97164.81;;;24.79;25.93
10464;BME280;5279;42.048;24.638;2023-12-20T10:36:19;97146.16;;;23.35;28.12
10464;BME280;5279;42.048;24.638;2023-12-20T10:38:49;97152.75;;;22.10;30.22
10464;BME280;5279;42.048;24.638;2023-12-20T10:41:23;97138.22;;;21.93;30.48
10464;BME280;5279;42.048;24.638;2023-12-20T10:43:51;97141.03;;;21.79;30.84
10464;BME280;5279;42.048;24.638;2023-12-20T10:46:19;97145.06;;;22.25;30.69
10464;BME280;5279;42.048;24.638;2023-12-20T10:48:47;97140.81;;;21.81;30.63
10464;BME280;5279;42.048;24.638;2023-12-20T10:51:17;97144.50;;;20.83;31.94
10464;BME280;5279;42.048;24.638;2023-12-20T10:53:47;97133.97;;;20.56;32.08
10464;BME280;5279;42.048;24.638;2023-12-20T10:56:16;97123.03;;;20.76;32.80
10464;BME280;5279;42.048;24.638;2023-12-20T10:58:45;97107.97;;;21.54;30.69
10464;BME280;5279;42.048;24.638;2023-12-20T11:01:13;97107.84;;;23.38;29.09
10464;BME280;5279;42.048;24.638;2023-12-20T11:03:44;97113.81;;;24.76;27.50
10464;BME280;5279;42.048;24.638;2023-12-20T11:06:20;97101.78;;;25.77;25.83
10464;BME280;5279;42.048;24.638;2023-12-20T11:08:55;97091.63;;;26.38;25.38
10464;BME280;5279;42.048;24.638;2023-12-20T11:11:35;97094.88;;;26.40;25.05
10464;BME280;5279;42.048;24.638;2023-12-20T11:14:06;97096.19;;;26.64;25.16
10464;BME280;5279;42.048;24.638;2023-12-20T11:16:36;97085.31;;;26.64;24.86
10464;BME280;5279;42.048;24.638;2023-12-20T11:19:04;97082.09;;;26.35;25.17
10464;BME280;5279;42.048;24.638;2023-12-20T11:21:32;97084.81;;;26.67;25.02
10464;BME280;5279;42.048;24.638;2023-12-20T11:23:59;97071.56;;;27.12;23.83
10464;BME280;5279;42.048;24.638;2023-12-20T11:26:27;97070.38;;;27.35;23.73
10464;BME280;5279;42.048;24.638;2023-12-20T11:28:54;97061.81;;;27.17;23.48
10464;BME280;5279;42.048;24.638;2023-12-20T11:31:41;97061.06;;;26.57;24.21
10464;BME280;5279;42.048;24.638;2023-12-20T11:34:13;97051.75;;;26.17;24.70
10464;BME280;5279;42.048;24.638;2023-12-20T11:36:40;97049.34;;;26.52;24.59
10464;BME280;5279;42.048;24.638;2023-12-20T11:39:07;97045.72;;;26.73;24.29
10464;BME280;5279;42.048;24.638;2023-12-20T11:41:36;97046.88;;;25.70;25.29
10464;BME280;5279;42.048;24.638;2023-12-20T11:44:04;97045.41;;;25.02;26.69
10464;BME280;5279;42.048;24.638;2023-12-20T11:46:31;97048.53;;;24.94;26.47
10464;BME280;5279;42.048;24.638;2023-12-20T11:49:00;97037.88;;;25.48;25.94
10464;BME280;5279;42.048;24.638;2023-12-20T11:51:27;97048.19;;;23.96;27.13
10464;BME280;5279;42.048;24.638;2023-12-20T11:53:53;97035.13;;;22.55;28.66
10464;BME280;5279;42.048;24.638;2023-12-20T11:56:20;97030.31;;;21.74;29.82
10464;BME280;5279;42.048;24.638;2023-12-20T11:58:47;97034.78;;;20.78;31.26
10464;BME280;5279;42.048;24.638;2023-12-20T12:01:14;97033.50;;;19.75;32.82
10464;BME280;5279;42.048;24.638;2023-12-20T12:03:41;97029.22;;;19.10;34.08
10464;BME280;5279;42.048;24.638;2023-12-20T12:06:09;97022.31;;;18.04;35.53
10464;BME280;5279;42.048;24.638;2023-12-20T12:08:36;97028.44;;;17.11;36.68
10464;BME280;5279;42.048;24.638;2023-12-20T12:11:03;97011.31;;;16.99;37.42
10464;BME280;5279;42.048;24.638;2023-12-20T12:13:30;97008.25;;;16.68;38.71
10464;BME280;5279;42.048;24.638;2023-12-20T12:15:57;97008.03;;;16.41;39.19
10464;BME280;5279;42.048;24.638;2023-12-20T12:18:23;97006.94;;;16.02;40.13
10464;BME280;5279;42.048;24.638;2023-12-20T12:21:00;97009.03;;;15.64;41.60
10464;BME280;5279;42.048;24.638;2023-12-20T12:23:28;96998.66;;;15.18;42.42
10464;BME280;5279;42.048;24.638;2023-12-20T12:25:54;96992.09;;;14.85;43.80
10464;BME280;5279;42.048;24.638;2023-12-20T12:28:21;96993.41;;;14.60;44.58
10464;BME280;5279;42.048;24.638;2023-12-20T12:30:56;96999.22;;;14.11;45.79
10464;BME280;5279;42.048;24.638;2023-12-20T12:33:24;97001.03;;;13.96;46.49
10464;BME280;5279;42.048;24.638;2023-12-20T12:35:51;96992.53;;;13.78;46.79
10464;BME280;5279;42.048;24.638;2023-12-20T12:38:20;96991.94;;;13.68;47.12
10464;BME280;5279;42.048;24.638;2023-12-20T12:40:48;96984.84;;;13.60;48.49
10464;BME280;5279;42.048;24.638;2023-12-20T12:43:15;96995.63;;;13.67;48.68
10464;BME280;5279;42.048;24.638;2023-12-20T12:45:42;96988.28;;;13.69;48.55
10464;BME280;5279;42.048;24.638;2023-12-20T12:48:08;96992.28;;;13.65;49.00
10464;BME280;5279;42.048;24.638;2023-12-20T12:50:35;96996.22;;;13.54;49.23
10464;BME280;5279;42.048;24.638;2023-12-20T12:53:02;96978.47;;;13.47;49.90
10464;BME280;5279;42.048;24.638;2023-12-20T12:55:29;96985.28;;;13.49;50.13
10464;BME280;5279;42.048;24.638;2023-12-20T12:57:57;96978.13;;;13.27;50.25
10464;BME280;5279;42.048;24.638;2023-12-20T13:00:24;96976.66;;;13.17;50.44
10464;BME280;5279;42.048;24.638;2023-12-20T13:02:51;96968.09;;;13.06;50.98